Main page
METAR-TAF:

METAR-TAF

Airports :

Ouagadougou, Burkina Faso

Ouagadougou Airport

latitude: 12-21N, longitude: 001-31W, elevation: 316 m

Current weather observation

The report was made 30 minutes ago, at 07:00 UTC
Wind 5 kt from the South/Southwest
Temperature 26°C
Humidity 74%
Pressure 1014 hPa
Visibility 10 km or more
no clouds below 1500 m and no cumulonimbus

METAR: DFFD 260700Z 21005KT CAVOK 26/21 Q1014 NOSIG

Time: 07:30 (07:30 UTC)

Forecast

The report was made 2 hours and 30 minutes ago, at 05:00 UTC
Forecast valid from 26 at 06 UTC to 27 at 12 UTC
Wind 10 kt from the West/Southwest
Visibility 10 km or more
Few clouds at a height of 2600 ft
Temporary
from 26 at 14 UTC to 26 at 24 UTC
Wind 25 kt from variable directions
Visibility: 4000 m
Scattered clouds at a height of 2600 ft
Few clouds at a height of 3600 ft, Cumulonimbus.
squalls, thunderstorm, rain

TAF: DFFD 260500Z 2606/2712 24010KT 9999 FEW026 TEMPO 2614/2624 VRB25KT 4000 SQ TSRA SCT026 FEW036CB

Weather observations and forecasts of more than 4000 airports (METAR and TAF reports).

The available stations are represented by yellow and red dots on the map.

Hover mouse over dot to see the name of the station.

Then click to see weather observations and forecasts.

To change the map : click on the green buttons with a black cross to zoom in, on the green button with a dash to zoom out, or on the green arrows for adjacent maps.


METAR-TAF: